createdAt,value
2022-12-22T00:01:55.300Z,65.20
2022-12-22T00:04:42.135Z,65.40
2022-12-22T00:07:27.403Z,65.30
2022-12-22T00:10:13.144Z,65.30
2022-12-22T00:12:58.360Z,65.40
2022-12-22T00:15:43.780Z,65.80
2022-12-22T00:18:34.315Z,65.50
2022-12-22T00:21:19.821Z,65.60
2022-12-22T00:24:05.339Z,65.40
2022-12-22T00:26:53.105Z,65.50
2022-12-22T00:29:38.919Z,65.60
2022-12-22T00:32:24.914Z,65.60
2022-12-22T00:35:10.528Z,65.60
2022-12-22T00:37:56.734Z,65.90
2022-12-22T00:40:46.075Z,65.80
2022-12-22T00:43:32.661Z,65.70
2022-12-22T00:46:21.076Z,65.40
2022-12-22T00:49:07.506Z,65.60
2022-12-22T00:51:53.218Z,65.60
2022-12-22T00:54:41.321Z,65.60
2022-12-22T00:57:35.090Z,65.60
2022-12-22T01:00:20.478Z,65.50
2022-12-22T01:03:07.998Z,65.50
2022-12-22T01:05:53.686Z,65.40
2022-12-22T01:08:38.871Z,65.40
2022-12-22T01:11:24.711Z,65.60
2022-12-22T01:14:10.105Z,65.70
2022-12-22T01:16:55.595Z,65.50
2022-12-22T01:19:40.788Z,65.50
2022-12-22T01:22:31.731Z,65.50
2022-12-22T01:25:17.012Z,66.50
2022-12-22T01:28:03.090Z,65.50
2022-12-22T01:30:48.611Z,65.50
2022-12-22T01:33:33.881Z,65.30
2022-12-22T01:36:19.176Z,65.40
2022-12-22T01:39:04.482Z,65.80
2022-12-22T01:41:49.748Z,65.50
2022-12-22T01:44:37.034Z,65.50
2022-12-22T01:47:50.081Z,65.60
2022-12-22T01:50:47.292Z,65.80
2022-12-22T01:53:37.615Z,65.40
2022-12-22T01:56:23.866Z,65.30
2022-12-22T01:59:13.462Z,65.10
2022-12-22T02:02:00.675Z,65.30
2022-12-22T02:04:51.952Z,65.20
2022-12-22T02:08:04.979Z,65.30
2022-12-22T02:10:59.012Z,65.50
2022-12-22T02:14:04.725Z,65.40
2022-12-22T02:17:02.372Z,65.20
2022-12-22T02:19:53.879Z,65.40
2022-12-22T02:22:42.250Z,65.30
2022-12-22T02:25:44.137Z,65.20
2022-12-22T02:28:31.792Z,65.50
2022-12-22T02:31:17.193Z,65.20
2022-12-22T02:34:02.669Z,65.20
2022-12-22T02:37:03.886Z,65.30
2022-12-22T02:40:05.483Z,65.40
2022-12-22T02:42:54.874Z,65.20
2022-12-22T02:46:05.268Z,65.30
2022-12-22T02:48:59.702Z,65.50
2022-12-22T02:51:48.293Z,65.20
2022-12-22T02:54:36.530Z,65.20
2022-12-22T02:57:25.754Z,65.30
2022-12-22T03:00:13.601Z,65.40
2022-12-22T03:02:59.500Z,65.30
2022-12-22T03:05:44.765Z,65.30
2022-12-22T03:08:30.209Z,65.30
2022-12-22T03:11:15.455Z,65.30
2022-12-22T03:14:00.923Z,65.20
2022-12-22T03:16:46.037Z,65.10
2022-12-22T03:19:31.706Z,65.10
2022-12-22T03:22:16.800Z,65.30
2022-12-22T03:25:02.478Z,65.40
2022-12-22T03:27:29.455Z,65.30
2022-12-22T03:29:56.211Z,65.30
2022-12-22T03:32:23.235Z,65.30
2022-12-22T03:34:49.919Z,65.30
2022-12-22T03:37:16.814Z,65.30
2022-12-22T03:39:43.568Z,65.30
2022-12-22T03:42:32.111Z,65.50
2022-12-22T03:45:17.500Z,65.60
2022-12-22T03:47:44.488Z,65.50
2022-12-22T03:50:11.417Z,65.50
2022-12-22T03:52:38.614Z,65.50
2022-12-22T03:55:05.827Z,65.50
2022-12-22T03:57:32.641Z,65.50
2022-12-22T03:59:59.488Z,65.50
2022-12-22T04:02:26.718Z,65.60
2022-12-22T04:04:53.581Z,65.50
2022-12-22T04:07:20.404Z,65.50
2022-12-22T04:10:05.689Z,65.40
2022-12-22T04:12:50.974Z,65.50
2022-12-22T04:15:18.042Z,65.50
2022-12-22T04:17:44.693Z,65.30
2022-12-22T04:20:11.984Z,65.40
2022-12-22T04:22:38.942Z,65.40
2022-12-22T04:25:06.182Z,65.30
2022-12-22T04:27:34.091Z,65.40
2022-12-22T04:30:00.801Z,65.40
2022-12-22T04:32:27.486Z,65.50
2022-12-22T04:34:54.680Z,65.50
2022-12-22T04:37:21.439Z,65.60
2022-12-22T04:39:48.173Z,65.70
2022-12-22T04:42:15.183Z,65.80
2022-12-22T04:44:41.908Z,65.90
2022-12-22T04:47:08.599Z,66.00
2022-12-22T04:49:35.787Z,66.10
2022-12-22T04:52:02.543Z,66.20
2022-12-22T04:54:29.214Z,66.20
2022-12-22T04:56:56.277Z,66.30
2022-12-22T04:59:23.026Z,66.50
2022-12-22T05:01:50.005Z,66.80
2022-12-22T05:04:23.355Z,67.00
2022-12-22T05:06:50.562Z,66.70
2022-12-22T05:09:17.290Z,66.70
2022-12-22T05:11:44.041Z,66.60
2022-12-22T05:14:10.754Z,66.80
2022-12-22T05:16:37.649Z,66.60
2022-12-22T05:19:04.468Z,66.60
2022-12-22T05:21:31.122Z,66.70
2022-12-22T05:23:58.924Z,67.00
2022-12-22T05:26:25.606Z,66.80
2022-12-22T05:28:52.694Z,67.00
2022-12-22T05:31:24.392Z,67.00
2022-12-22T05:33:51.823Z,67.10
2022-12-22T05:36:19.426Z,66.80
2022-12-22T05:38:46.318Z,66.80
2022-12-22T05:41:13.317Z,66.70
2022-12-22T05:43:41.316Z,66.70
2022-12-22T05:46:10.208Z,66.70
2022-12-22T05:48:39.336Z,66.90
2022-12-22T05:51:08.382Z,66.80
2022-12-22T05:53:35.945Z,66.70
2022-12-22T05:56:02.668Z,66.90
2022-12-22T05:58:29.535Z,66.80
2022-12-22T06:00:58.354Z,66.70
2022-12-22T06:03:26.525Z,66.70
2022-12-22T06:05:53.684Z,66.60
2022-12-22T06:08:20.916Z,66.90
2022-12-22T06:10:48.300Z,66.90
2022-12-22T06:13:15.025Z,66.70
2022-12-22T06:15:42.119Z,66.50
2022-12-22T06:18:08.956Z,66.80
2022-12-22T06:20:35.965Z,66.60
2022-12-22T06:23:03.233Z,66.50
2022-12-22T06:25:29.996Z,66.40
2022-12-22T06:27:56.907Z,66.40
2022-12-22T06:30:31.007Z,66.60
2022-12-22T06:33:01.068Z,66.50
2022-12-22T06:35:28.077Z,66.50
2022-12-22T06:37:54.703Z,66.60
2022-12-22T06:40:21.863Z,66.70
2022-12-22T06:43:09.127Z,66.70
2022-12-22T06:45:42.166Z,66.80
2022-12-22T06:48:10.139Z,67.00
2022-12-22T06:50:36.841Z,66.90
2022-12-22T06:53:04.752Z,66.80
2022-12-22T06:55:31.481Z,66.80
2022-12-22T06:57:58.543Z,66.50
2022-12-22T07:00:25.714Z,66.10
2022-12-22T07:02:53.007Z,66.10
2022-12-22T07:05:20.095Z,66.50
2022-12-22T07:07:47.161Z,67.10
2022-12-22T07:10:14.088Z,66.80
2022-12-22T07:12:41.260Z,66.70
2022-12-22T07:15:08.924Z,66.70
2022-12-22T07:17:35.808Z,66.60
2022-12-22T07:20:02.470Z,66.50
2022-12-22T07:22:30.725Z,66.40
2022-12-22T07:24:58.747Z,66.30
2022-12-22T07:27:25.696Z,66.20
2022-12-22T07:29:52.529Z,65.90
2022-12-22T07:32:19.223Z,66.00
2022-12-22T07:34:46.112Z,66.00
2022-12-22T07:37:14.016Z,65.90
2022-12-22T07:39:40.859Z,65.90
2022-12-22T07:42:26.413Z,65.70
2022-12-22T07:44:53.121Z,65.50
2022-12-22T07:47:20.072Z,65.50
2022-12-22T07:50:05.188Z,65.30
2022-12-22T07:52:31.953Z,65.30
2022-12-22T07:54:58.668Z,65.30
2022-12-22T07:57:26.410Z,65.20
2022-12-22T07:59:53.801Z,65.30
2022-12-22T08:02:20.600Z,65.30
2022-12-22T08:04:47.528Z,65.40
2022-12-22T08:07:14.223Z,65.30
2022-12-22T08:09:40.902Z,65.40
2022-12-22T08:12:07.698Z,65.40
2022-12-22T08:14:34.520Z,65.50
2022-12-22T08:17:01.238Z,65.40
2022-12-22T08:19:28.070Z,65.50
2022-12-22T08:21:54.728Z,65.60
2022-12-22T08:24:22.119Z,65.70
2022-12-22T08:26:53.242Z,65.70
2022-12-22T08:29:25.395Z,65.80
2022-12-22T08:31:54.108Z,65.80
2022-12-22T08:34:21.369Z,65.90
2022-12-22T08:36:51.440Z,65.80
2022-12-22T08:39:19.728Z,66.00
2022-12-22T08:41:52.630Z,65.90
2022-12-22T08:44:28.241Z,66.10
2022-12-22T08:46:57.071Z,66.20
2022-12-22T08:49:24.401Z,66.20
2022-12-22T08:51:51.446Z,66.10
2022-12-22T08:54:18.382Z,66.30
2022-12-22T08:56:45.769Z,66.30
2022-12-22T08:59:13.080Z,66.30
2022-12-22T09:01:44.221Z,66.50
2022-12-22T09:04:15.703Z,66.60
2022-12-22T09:06:42.453Z,67.50
2022-12-22T09:09:12.152Z,66.80
2022-12-22T09:11:40.262Z,66.90
2022-12-22T09:14:08.815Z,66.90
2022-12-22T09:16:36.320Z,67.00
2022-12-22T09:19:03.715Z,67.00
2022-12-22T09:21:30.814Z,66.90
2022-12-22T09:23:58.419Z,66.80
2022-12-22T09:26:27.557Z,66.70
2022-12-22T09:28:55.250Z,66.70
2022-12-22T09:31:24.375Z,66.60
2022-12-22T09:33:51.509Z,66.70
2022-12-22T09:36:21.146Z,67.10
2022-12-22T09:38:47.914Z,66.80
2022-12-22T09:41:31.826Z,66.90
2022-12-22T09:44:10.476Z,67.10
2022-12-22T09:46:38.541Z,67.00
2022-12-22T09:49:12.350Z,66.90
2022-12-22T09:51:46.446Z,66.90
2022-12-22T09:54:14.512Z,66.80
2022-12-22T09:56:41.468Z,66.70
2022-12-22T09:59:14.161Z,66.50
2022-12-22T10:02:00.309Z,66.30
2022-12-22T10:04:41.311Z,66.20
2022-12-22T10:07:21.697Z,66.20
2022-12-22T10:09:51.206Z,66.10
2022-12-22T10:12:22.950Z,66.00
2022-12-22T10:14:52.278Z,65.90
2022-12-22T10:17:34.158Z,66.00
2022-12-22T10:20:19.391Z,66.00
2022-12-22T10:22:58.651Z,66.10
2022-12-22T10:25:52.516Z,66.10
2022-12-22T10:28:26.995Z,66.00
2022-12-22T10:31:12.685Z,65.80
2022-12-22T10:33:46.423Z,65.70
2022-12-22T10:36:17.999Z,65.60
2022-12-22T10:39:19.823Z,65.60
2022-12-22T10:41:49.151Z,65.60
2022-12-22T10:44:15.804Z,65.50
2022-12-22T10:46:58.309Z,65.40
2022-12-22T10:52:30.977Z,65.50
2022-12-22T10:55:26.824Z,65.60
2022-12-22T10:58:09.974Z,65.50
2022-12-22T11:00:41.090Z,65.60
2022-12-22T11:03:12.104Z,65.70
2022-12-22T11:05:39.393Z,65.60
2022-12-22T11:08:18.902Z,65.50
2022-12-22T11:11:01.572Z,65.40
2022-12-22T11:13:42.387Z,65.70
2022-12-22T11:16:40.272Z,65.70
2022-12-22T11:19:40.934Z,65.60
2022-12-22T11:22:39.223Z,65.40
2022-12-22T11:25:22.943Z,65.20
2022-12-22T11:28:11.698Z,65.10
2022-12-22T11:30:51.280Z,65.00
2022-12-22T11:33:49.891Z,65.00
2022-12-22T11:36:50.185Z,65.00
2022-12-22T11:39:28.552Z,65.00
2022-12-22T11:41:59.233Z,65.00
2022-12-22T11:44:38.475Z,65.00
2022-12-22T11:47:36.775Z,64.80
2022-12-22T11:50:58.993Z,64.80
2022-12-22T11:53:07.125Z,64.70
2022-12-22T11:55:39.474Z,64.70
2022-12-22T11:58:30.850Z,64.50
2022-12-22T12:01:31.335Z,64.60
2022-12-22T12:04:46.954Z,64.60
2022-12-22T12:07:25.573Z,64.40
2022-12-22T12:10:07.136Z,64.50
2022-12-22T12:12:56.125Z,64.50
2022-12-22T12:15:38.872Z,64.70
2022-12-22T12:18:42.674Z,64.70
2022-12-22T12:21:12.273Z,64.70
2022-12-22T12:24:03.744Z,64.80
2022-12-22T12:26:35.022Z,64.60
2022-12-22T12:29:27.238Z,64.60
2022-12-22T12:32:01.342Z,64.50
2022-12-22T12:34:33.734Z,64.40
2022-12-22T12:37:07.685Z,63.80
2022-12-22T12:40:05.500Z,63.80
2022-12-22T12:42:41.991Z,63.70
2022-12-22T12:45:57.718Z,63.80
2022-12-22T12:48:24.441Z,63.80
2022-12-22T12:50:52.642Z,64.30
2022-12-22T12:53:24.491Z,64.20
2022-12-22T12:55:54.578Z,64.00
2022-12-22T12:58:37.821Z,63.50
2022-12-22T13:01:13.365Z,63.10
2022-12-22T13:06:51.082Z,62.90
2022-12-22T13:09:49.075Z,62.40
2022-12-22T13:12:39.063Z,62.70
2022-12-22T13:15:29.687Z,62.60
2022-12-22T13:17:57.442Z,62.60
2022-12-22T13:20:36.497Z,62.70
2022-12-22T13:23:11.054Z,62.50
2022-12-22T13:25:45.846Z,62.40
2022-12-22T13:28:16.932Z,62.20
2022-12-22T13:30:59.306Z,62.10
2022-12-22T13:33:30.897Z,62.00
2022-12-22T13:35:59.555Z,62.10
2022-12-22T13:38:35.678Z,62.20
2022-12-22T13:41:20.102Z,62.80
2022-12-22T13:44:04.350Z,62.20
2022-12-22T13:46:34.937Z,62.30
2022-12-22T13:49:04.733Z,62.50
2022-12-22T13:51:36.292Z,62.60
2022-12-22T13:54:18.735Z,62.60
2022-12-22T13:56:54.042Z,62.60
2022-12-22T13:59:35.281Z,62.40
2022-12-22T14:02:16.653Z,62.50
2022-12-22T14:05:08.705Z,62.40
2022-12-22T14:07:35.728Z,62.60
2022-12-22T14:10:02.736Z,63.10
2022-12-22T14:12:40.599Z,63.30
2022-12-22T14:15:17.309Z,63.00
2022-12-22T14:17:52.155Z,62.90
2022-12-22T14:20:28.969Z,63.00
2022-12-22T14:23:01.928Z,63.00
2022-12-22T14:25:41.331Z,62.90
2022-12-22T14:28:39.518Z,62.70
2022-12-22T14:31:07.421Z,63.20
2022-12-22T14:33:35.241Z,63.40
2022-12-22T14:36:20.725Z,62.50
2022-12-22T14:38:52.115Z,62.00
2022-12-22T14:41:39.721Z,62.20
2022-12-22T14:44:13.608Z,62.20
2022-12-22T14:46:41.438Z,62.10
2022-12-22T14:49:17.714Z,62.10
2022-12-22T14:51:59.100Z,61.90
2022-12-22T14:54:28.215Z,61.70
2022-12-22T14:57:02.426Z,61.80
2022-12-22T14:59:29.374Z,61.60
2022-12-22T15:02:01.474Z,61.70
2022-12-22T15:04:29.156Z,61.70
2022-12-22T15:07:30.080Z,61.70
2022-12-22T15:10:15.054Z,61.50
2022-12-22T15:12:44.493Z,61.50
2022-12-22T15:15:22.137Z,61.40
2022-12-22T15:17:52.984Z,61.20
2022-12-22T15:20:23.065Z,61.30
2022-12-22T15:22:50.086Z,61.10
2022-12-22T15:25:20.197Z,61.20
2022-12-22T15:27:47.030Z,61.10
2022-12-22T15:30:18.282Z,60.90
2022-12-22T15:32:45.669Z,60.90
2022-12-22T15:35:18.370Z,60.90
2022-12-22T15:37:45.305Z,60.90
2022-12-22T15:40:17.008Z,61.00
2022-12-22T15:42:44.076Z,61.00
2022-12-22T15:45:11.385Z,61.10
2022-12-22T15:47:38.804Z,61.10
2022-12-22T15:50:08.934Z,61.10
2022-12-22T15:52:35.691Z,61.10
2022-12-22T15:55:02.515Z,61.20
2022-12-22T15:57:29.924Z,61.30
2022-12-22T15:59:56.684Z,61.30
2022-12-22T16:02:23.651Z,61.40
2022-12-22T16:04:50.455Z,61.60
2022-12-22T16:07:17.338Z,61.70
2022-12-22T16:09:46.074Z,61.80
2022-12-22T16:12:18.397Z,61.80
2022-12-22T16:14:50.695Z,61.80
2022-12-22T16:17:21.029Z,61.90
2022-12-22T16:19:47.747Z,61.90
2022-12-22T16:22:17.506Z,61.90
2022-12-22T16:24:46.440Z,61.90
2022-12-22T16:27:13.894Z,61.90
2022-12-22T16:29:48.555Z,62.00
2022-12-22T16:32:28.497Z,62.10
2022-12-22T16:35:14.907Z,62.30
2022-12-22T16:37:42.096Z,62.40
2022-12-22T16:40:09.968Z,62.40
2022-12-22T16:45:28.640Z,62.50
2022-12-22T16:47:59.535Z,62.60
2022-12-22T16:50:32.739Z,62.60
2022-12-22T16:53:05.387Z,62.60
2022-12-22T16:55:33.583Z,62.60
2022-12-22T16:58:00.305Z,62.60
2022-12-22T17:00:30.267Z,62.50
2022-12-22T17:03:19.067Z,62.30
2022-12-22T17:05:53.087Z,62.40
2022-12-22T17:08:27.075Z,62.50
2022-12-22T17:10:56.546Z,62.80
2022-12-22T17:13:23.714Z,62.80
2022-12-22T17:15:50.765Z,63.00
2022-12-22T17:18:20.314Z,63.20
2022-12-22T17:20:50.313Z,63.20
2022-12-22T17:23:28.695Z,63.40
2022-12-22T17:25:55.834Z,63.50
2022-12-22T17:28:22.633Z,63.50
2022-12-22T17:30:49.520Z,63.60
2022-12-22T17:33:17.207Z,63.50
2022-12-22T17:35:45.579Z,63.60
2022-12-22T17:38:14.394Z,63.60
2022-12-22T17:40:42.427Z,63.50
2022-12-22T17:43:17.226Z,63.50
2022-12-22T17:45:46.011Z,63.60
2022-12-22T17:48:17.455Z,63.50
2022-12-22T17:50:49.439Z,63.40
2022-12-22T17:53:19.968Z,63.30
2022-12-22T17:58:35.162Z,63.30
2022-12-22T18:01:01.921Z,63.40
2022-12-22T18:03:28.753Z,63.40
2022-12-22T18:05:55.575Z,63.30
2022-12-22T18:08:22.625Z,63.40
2022-12-22T18:10:49.810Z,63.60
2022-12-22T18:13:26.375Z,63.50
2022-12-22T18:15:54.959Z,63.70
2022-12-22T18:18:21.984Z,63.70
2022-12-22T18:21:06.191Z,63.70
2022-12-22T18:23:36.540Z,63.70
2022-12-22T18:26:05.997Z,63.70
2022-12-22T18:28:32.733Z,63.70
2022-12-22T18:30:59.889Z,63.70
2022-12-22T18:33:26.579Z,63.70
2022-12-22T18:35:53.362Z,63.70
2022-12-22T18:38:28.225Z,63.70
2022-12-22T18:40:55.505Z,63.90
2022-12-22T18:43:22.646Z,63.80
2022-12-22T18:45:49.676Z,63.80
2022-12-22T18:48:16.567Z,63.80
2022-12-22T18:50:43.662Z,63.80
2022-12-22T18:53:43.008Z,63.80
2022-12-22T18:56:12.267Z,64.00
2022-12-22T18:58:40.231Z,63.90
2022-12-22T19:01:11.555Z,64.00
2022-12-22T19:03:38.569Z,64.00
2022-12-22T19:06:05.496Z,64.00
2022-12-22T19:08:32.200Z,64.00
2022-12-22T19:11:03.657Z,64.10
2022-12-22T19:13:35.305Z,64.30
2022-12-22T19:16:02.343Z,64.30
2022-12-22T19:18:29.243Z,64.20
2022-12-22T19:20:56.290Z,64.40
2022-12-22T19:23:24.749Z,64.30
2022-12-22T19:26:00.930Z,64.40
2022-12-22T19:28:37.475Z,64.40
2022-12-22T19:31:06.607Z,64.40
2022-12-22T19:33:43.036Z,64.50
2022-12-22T19:36:28.234Z,65.20
2022-12-22T19:39:03.316Z,64.70
2022-12-22T19:41:34.217Z,64.60
2022-12-22T19:44:01.135Z,64.60
2022-12-22T19:46:32.321Z,64.60
2022-12-22T19:48:59.607Z,64.60
2022-12-22T19:51:26.445Z,64.60
2022-12-22T19:53:54.234Z,64.70
2022-12-22T19:56:29.809Z,64.70
2022-12-22T19:58:58.429Z,64.70
2022-12-22T20:01:25.318Z,64.60
2022-12-22T20:03:52.857Z,64.70
2022-12-22T20:06:19.830Z,64.70
2022-12-22T20:08:46.827Z,64.70
2022-12-22T20:11:19.146Z,64.80
2022-12-22T20:13:47.323Z,64.90
2022-12-22T20:16:15.737Z,64.80
2022-12-22T20:18:43.866Z,64.80
2022-12-22T20:21:21.548Z,64.80
2022-12-22T20:23:48.692Z,64.90
2022-12-22T20:26:20.077Z,64.90
2022-12-22T20:28:47.408Z,65.00
2022-12-22T20:31:17.011Z,65.00
2022-12-22T20:33:43.961Z,65.10
2022-12-22T20:36:22.082Z,65.00
2022-12-22T20:38:52.036Z,65.20
2022-12-22T20:41:19.447Z,65.10
2022-12-22T20:43:46.290Z,65.20
2022-12-22T20:46:18.188Z,65.30
2022-12-22T20:48:49.097Z,65.30
2022-12-22T20:51:19.016Z,65.30
2022-12-22T20:53:46.848Z,65.40
2022-12-22T20:56:37.563Z,65.40
2022-12-22T20:59:14.677Z,65.50
2022-12-22T21:01:41.706Z,65.50
2022-12-22T21:04:08.538Z,65.30
2022-12-22T21:06:38.228Z,65.50
2022-12-22T21:09:05.111Z,65.50
2022-12-22T21:11:32.078Z,65.40
2022-12-22T21:13:59.402Z,65.40
2022-12-22T21:16:28.646Z,65.40
2022-12-22T21:18:55.924Z,66.20
2022-12-22T21:21:22.925Z,65.40
2022-12-22T21:23:49.978Z,65.50
2022-12-22T21:26:32.474Z,65.60
2022-12-22T21:29:01.483Z,65.70
2022-12-22T21:31:29.562Z,65.50
2022-12-22T21:33:56.513Z,65.40
2022-12-22T21:36:29.724Z,65.50
2022-12-22T21:39:01.532Z,65.50
2022-12-22T21:41:47.790Z,65.50
2022-12-22T21:44:15.047Z,65.50
2022-12-22T21:46:46.605Z,65.50
2022-12-22T21:49:22.917Z,65.60
2022-12-22T21:51:51.365Z,65.70
2022-12-22T21:54:20.124Z,65.50
2022-12-22T21:56:47.725Z,65.60
2022-12-22T21:59:14.727Z,65.60
2022-12-22T22:01:42.459Z,65.50
2022-12-22T22:04:10.035Z,65.50
2022-12-22T22:06:37.837Z,65.60
2022-12-22T22:09:05.857Z,65.60
2022-12-22T22:11:33.009Z,65.50
2022-12-22T22:14:00.277Z,65.70
2022-12-22T22:16:27.110Z,65.50
2022-12-22T22:18:54.027Z,65.50
2022-12-22T22:21:20.656Z,65.50
2022-12-22T22:23:47.518Z,65.50
2022-12-22T22:26:14.228Z,65.60
2022-12-22T22:28:41.109Z,65.60
2022-12-22T22:31:11.826Z,65.60
2022-12-22T22:33:38.975Z,65.70
2022-12-22T22:36:08.925Z,65.60
2022-12-22T22:38:36.000Z,66.30
2022-12-22T22:41:02.911Z,65.60
2022-12-22T22:43:29.750Z,65.60
2022-12-22T22:45:56.704Z,65.50
2022-12-22T22:48:23.792Z,65.10
2022-12-22T22:50:51.250Z,65.50
2022-12-22T22:53:18.039Z,65.50
2022-12-22T22:55:44.789Z,65.50
2022-12-22T22:58:11.717Z,65.50
2022-12-22T23:00:39.567Z,65.60
2022-12-22T23:03:06.416Z,65.60
2022-12-22T23:05:33.637Z,65.60
2022-12-22T23:08:00.660Z,65.70
2022-12-22T23:10:27.526Z,65.80
2022-12-22T23:12:55.014Z,65.80
2022-12-22T23:15:21.912Z,66.50
2022-12-22T23:17:51.608Z,65.80
2022-12-22T23:20:19.299Z,65.80
2022-12-22T23:22:45.947Z,65.80
2022-12-22T23:25:12.708Z,65.90
2022-12-22T23:27:39.533Z,65.80
2022-12-22T23:30:07.250Z,65.90
2022-12-22T23:32:34.008Z,65.90
2022-12-22T23:35:00.699Z,65.80
2022-12-22T23:37:27.642Z,65.80
2022-12-22T23:39:54.592Z,65.80
2022-12-22T23:42:22.703Z,66.40
2022-12-22T23:44:49.409Z,65.80
2022-12-22T23:47:16.196Z,65.80
2022-12-22T23:49:42.986Z,65.80
2022-12-22T23:52:09.777Z,65.80
2022-12-22T23:54:36.477Z,65.80
2022-12-22T23:57:03.624Z,65.80
2022-12-22T23:59:30.336Z,65.80
